Nearby METAR Reports

 

EBAW - Antwerpen, Belgium
Distance from station: NW 22km
Updated: 2019-01-20 10:20
Clear
Clear
 Wind from E
Wind: E 9 km/h
Temperature: -3°C
Wind Chill: -7°C
Dew Point: -5°C
Humidity: 86%
Barometer: 1016 hPa
Summary: Clear
Visibility: greater than 10 km
2019/01/20 09:20 EBAW 200920Z 08005KT CAVOK M03/M05 Q1016 NOSIG
EBBR - Brussel, Belgium
Distance from station: SW 24km
Updated: 2019-01-20 10:20
Partly cloudy
Partly cloudy
 Wind from E
Wind: E 4 km/h
Temperature: -4°C
Dew Point: -6°C
Humidity: 86%
Barometer: 1016 hPa
Clouds: Partly cloudy
Visibility: 9 km
2019/01/20 09:20 EBBR 200920Z 08002KT 9000 NSC M04/M06 Q1016 NOSIG
 
EBDT - Schaffen, Belgium
Distance from station: ESE 26km
Updated: 2019-01-20 09:55
Clear
Clear
 Wind from varies
Wind: varies 4 km/h
Temperature: -5°C
Dew Point: -6°C
Humidity: 93%
Barometer: 1016 hPa
Clouds: Clear
Visibility: 10 km
2019/01/20 08:55 EBDT 200855Z AUTO VRB02KT 9999 NCD M05/M06 Q1016 BLU
EBBE - Beauvechain, Belgium
Distance from station: S 36km
Updated: 2019-01-20 09:55
Clear
Clear
 Wind from ENE
Wind: ENE 6 km/h
Temperature: -3°C
Dew Point: -6°C
Humidity: 80%
Barometer: 1015 hPa
Clouds: Clear
Visibility: 10 km
2019/01/20 08:55 EBBE 200855Z AUTO 07003KT 9999 NCD M03/M06 Q1015 BLU
 
EHWO - Woensdrecht Rnla, Netherlands
Distance from station: NNW 50km
Updated: 2019-01-20 10:25
Clear
Clear
 Wind from ENE
Wind: ENE 11 km/h
Temperature: -3°C
Wind Chill: -7°C
Dew Point: -5°C
Humidity: 86%
Barometer: 1016 hPa
Clouds: Clear
Visibility: 10 km
2019/01/20 09:25 EHWO 200925Z AUTO 07006KT 9999 NCD M03/M05 Q1016 BLU
EBBL - Kleine-Brogel, Belgium
Distance from station: ENE 54km
Updated: 2019-01-20 09:55
Clear
Clear
 Wind from E
Wind: E 7 km/h
Temperature: -3°C
Wind Chill: -6°C
Dew Point: -6°C
Humidity: 80%
Barometer: 1016 hPa
Clouds: Clear
Visibility: 10 km
2019/01/20 08:55 EBBL 200855Z AUTO 09004KT 9999 NCD M03/M06 Q1016 BLU
 
EHGR - Gilze-Rijen Rnla, Netherlands
Distance from station: NNE 57km
Updated: 2019-01-20 10:25
Clear
Clear
 Wind from E
Wind: E 11 km/h
Temperature: -2°C
Wind Chill: -6°C
Dew Point: -6°C
Humidity: 74%
Barometer: 1017 hPa
Clouds: Clear
Visibility: 10 km
2019/01/20 09:25 EHGR 200925Z AUTO 09006KT 050V120 9999 NCD M02/M06 Q1017 BLU
EHEH - Eindhoven Rnlafb, Netherlands
Distance from station: NE 63km
Updated: 2019-01-20 10:25
Clear
Clear
 Wind from E
Wind: E 9 km/h
Temperature: -2°C
Wind Chill: -6°C
Dew Point: -7°C
Humidity: 69%
Barometer: 1017 hPa
Clouds: Clear
Visibility: 10 km
2019/01/20 09:25 EHEH 200925Z AUTO 08005KT 9999 NCD M02/M07 Q1017 BLU 06005KT CAVOK
 
EBCI - Charleroi, Belgium
Distance from station: SSW 70km
Updated: 2019-01-20 10:20
Clear
Clear
 Wind from E
Wind: E 6 km/h
Temperature: -2°C
Dew Point: -5°C
Humidity: 80%
Barometer: 1014 hPa
Summary: Clear
Visibility: greater than 10 km
2019/01/20 09:20 EBCI 200920Z 09003KT 050V130 CAVOK M02/M05 Q1014 NOSIG
EBLG - Bierset, Belgium
Distance from station: SE 72km
Updated: 2019-01-20 10:20
Clear
Clear
 Wind from ESE
Wind: ESE 6 km/h
Temperature: -2°C
Dew Point: -6°C
Humidity: 74%
Barometer: 1015 hPa
Summary: Clear
Visibility: greater than 10 km
2019/01/20 09:20 EBLG 200920Z 12003KT CAVOK M02/M06 Q1015 NOSIG